Terminal Aerodrome Forecast
Issued by NWS

Home | Current Version | Previous Version | Text Only | Print | Product List | Glossary On
Versions: 1 2 3 4 5 6 7 8 9 10 11 12 13 14 15 16 17 18
000
FTUS42 KJAX 301100
TAFCRG
TAF
KCRG 301120Z 3012/3112 VRB03KT P6SM FEW010 SCT090
     FM301400 16006KT P6SM SCT035
     FM301900 13011KT P6SM VCTS SCT020 BKN035CB BKN120
     FM310000 12007KT P6SM VCSH SCT030 BKN120
     FM310300 18003KT P6SM FEW030 SCT120 BKN250=

USA.gov is the U.S. government's official web portal to all federal, state and local government web resources and services.